sensor_id;sensor_type;location;lat;lon;timestamp;P1;durP1;ratioP1;P2;durP2;ratioP2
27408;SDS011;20413;50.782;7.152;2022-08-07T00:01:56;1.85;;;1.02;;
27408;SDS011;20413;50.782;7.152;2022-08-07T00:04:22;1.65;;;0.80;;
27408;SDS011;20413;50.782;7.152;2022-08-07T00:06:48;1.48;;;1.13;;
27408;SDS011;20413;50.782;7.152;2022-08-07T00:09:14;1.70;;;1.05;;
27408;SDS011;20413;50.782;7.152;2022-08-07T00:11:40;2.97;;;0.98;;
27408;SDS011;20413;50.782;7.152;2022-08-07T00:14:06;2.50;;;1.02;;
27408;SDS011;20413;50.782;7.152;2022-08-07T00:16:32;3.40;;;1.40;;
27408;SDS011;20413;50.782;7.152;2022-08-07T00:18:58;2.70;;;1.15;;
27408;SDS011;20413;50.782;7.152;2022-08-07T00:21:24;1.48;;;1.10;;
27408;SDS011;20413;50.782;7.152;2022-08-07T00:23:50;1.65;;;1.02;;
27408;SDS011;20413;50.782;7.152;2022-08-07T00:26:16;1.52;;;1.25;;
27408;SDS011;20413;50.782;7.152;2022-08-07T00:28:42;2.13;;;1.33;;
27408;SDS011;20413;50.782;7.152;2022-08-07T00:31:09;1.73;;;0.95;;
27408;SDS011;20413;50.782;7.152;2022-08-07T00:33:35;1.10;;;0.80;;
27408;SDS011;20413;50.782;7.152;2022-08-07T00:36:02;1.60;;;1.00;;
27408;SDS011;20413;50.782;7.152;2022-08-07T00:38:29;3.60;;;1.13;;
27408;SDS011;20413;50.782;7.152;2022-08-07T00:40:55;2.88;;;1.27;;
27408;SDS011;20413;50.782;7.152;2022-08-07T00:43:21;2.22;;;0.90;;
27408;SDS011;20413;50.782;7.152;2022-08-07T00:45:47;1.73;;;0.95;;
27408;SDS011;20413;50.782;7.152;2022-08-07T00:48:13;2.42;;;0.90;;
27408;SDS011;20413;50.782;7.152;2022-08-07T00:50:40;2.35;;;0.93;;
27408;SDS011;20413;50.782;7.152;2022-08-07T00:53:06;1.95;;;1.20;;
27408;SDS011;20413;50.782;7.152;2022-08-07T00:55:32;1.83;;;1.05;;
27408;SDS011;20413;50.782;7.152;2022-08-07T00:57:58;2.72;;;1.17;;
27408;SDS011;20413;50.782;7.152;2022-08-07T01:00:24;1.55;;;1.23;;
27408;SDS011;20413;50.782;7.152;2022-08-07T01:02:51;1.92;;;1.00;;
27408;SDS011;20413;50.782;7.152;2022-08-07T01:05:17;1.65;;;1.20;;
27408;SDS011;20413;50.782;7.152;2022-08-07T01:07:44;1.15;;;0.85;;
27408;SDS011;20413;50.782;7.152;2022-08-07T01:10:10;1.77;;;1.00;;
27408;SDS011;20413;50.782;7.152;2022-08-07T01:12:37;2.25;;;1.10;;
27408;SDS011;20413;50.782;7.152;2022-08-07T01:15:04;1.23;;;1.13;;
27408;SDS011;20413;50.782;7.152;2022-08-07T01:17:31;3.42;;;1.40;;
27408;SDS011;20413;50.782;7.152;2022-08-07T01:20:00;1.60;;;1.48;;
27408;SDS011;20413;50.782;7.152;2022-08-07T01:22:27;2.33;;;1.40;;
27408;SDS011;20413;50.782;7.152;2022-08-07T01:24:53;1.38;;;1.20;;
27408;SDS011;20413;50.782;7.152;2022-08-07T01:27:19;1.20;;;1.10;;
27408;SDS011;20413;50.782;7.152;2022-08-07T01:29:45;2.33;;;0.95;;
27408;SDS011;20413;50.782;7.152;2022-08-07T01:32:11;3.17;;;1.10;;
27408;SDS011;20413;50.782;7.152;2022-08-07T01:34:37;1.52;;;0.98;;
27408;SDS011;20413;50.782;7.152;2022-08-07T01:37:08;2.72;;;1.25;;
27408;SDS011;20413;50.782;7.152;2022-08-07T01:39:36;1.27;;;1.17;;
27408;SDS011;20413;50.782;7.152;2022-08-07T01:42:02;2.17;;;1.10;;
27408;SDS011;20413;50.782;7.152;2022-08-07T01:44:28;1.50;;;1.23;;
27408;SDS011;20413;50.782;7.152;2022-08-07T01:46:54;1.42;;;1.20;;
27408;SDS011;20413;50.782;7.152;2022-08-07T01:49:20;2.65;;;1.02;;
27408;SDS011;20413;50.782;7.152;2022-08-07T01:51:46;2.83;;;0.80;;
27408;SDS011;20413;50.782;7.152;2022-08-07T01:54:13;1.63;;;1.00;;
27408;SDS011;20413;50.782;7.152;2022-08-07T01:56:42;0.75;;;0.70;;
27408;SDS011;20413;50.782;7.152;2022-08-07T01:59:13;0.70;;;0.70;;
27408;SDS011;20413;50.782;7.152;2022-08-07T02:01:44;3.53;;;0.70;;
27408;SDS011;20413;50.782;7.152;2022-08-07T02:04:23;1.25;;;1.10;;
27408;SDS011;20413;50.782;7.152;2022-08-07T02:06:50;1.65;;;1.02;;
27408;SDS011;20413;50.782;7.152;2022-08-07T02:09:17;1.95;;;0.70;;
27408;SDS011;20413;50.782;7.152;2022-08-07T02:11:44;1.27;;;0.60;;
27408;SDS011;20413;50.782;7.152;2022-08-07T02:14:10;0.63;;;0.60;;
27408;SDS011;20413;50.782;7.152;2022-08-07T02:16:37;1.05;;;0.80;;
27408;SDS011;20413;50.782;7.152;2022-08-07T02:19:05;0.77;;;0.75;;
27408;SDS011;20413;50.782;7.152;2022-08-07T02:21:33;1.20;;;1.00;;
27408;SDS011;20413;50.782;7.152;2022-08-07T02:24:00;2.90;;;1.00;;
27408;SDS011;20413;50.782;7.152;2022-08-07T02:26:27;2.22;;;0.73;;
27408;SDS011;20413;50.782;7.152;2022-08-07T02:28:54;1.17;;;0.60;;
27408;SDS011;20413;50.782;7.152;2022-08-07T02:31:21;1.80;;;0.80;;
27408;SDS011;20413;50.782;7.152;2022-08-07T02:33:48;1.15;;;0.85;;
27408;SDS011;20413;50.782;7.152;2022-08-07T02:36:15;2.60;;;0.95;;
27408;SDS011;20413;50.782;7.152;2022-08-07T02:38:42;1.55;;;1.00;;
27408;SDS011;20413;50.782;7.152;2022-08-07T02:41:08;1.08;;;0.80;;
27408;SDS011;20413;50.782;7.152;2022-08-07T02:43:35;2.35;;;0.75;;
27408;SDS011;20413;50.782;7.152;2022-08-07T02:46:03;4.32;;;0.80;;
27408;SDS011;20413;50.782;7.152;2022-08-07T02:48:30;2.35;;;0.90;;
27408;SDS011;20413;50.782;7.152;2022-08-07T02:50:56;1.75;;;0.80;;
27408;SDS011;20413;50.782;7.152;2022-08-07T02:53:25;2.70;;;1.05;;
27408;SDS011;20413;50.782;7.152;2022-08-07T02:55:53;1.85;;;1.15;;
27408;SDS011;20413;50.782;7.152;2022-08-07T02:58:21;2.88;;;1.30;;
27408;SDS011;20413;50.782;7.152;2022-08-07T03:00:48;1.38;;;0.70;;
27408;SDS011;20413;50.782;7.152;2022-08-07T03:03:15;0.60;;;0.60;;
27408;SDS011;20413;50.782;7.152;2022-08-07T03:05:42;0.75;;;0.60;;
27408;SDS011;20413;50.782;7.152;2022-08-07T03:08:09;1.38;;;0.88;;
27408;SDS011;20413;50.782;7.152;2022-08-07T03:10:36;1.42;;;0.70;;
27408;SDS011;20413;50.782;7.152;2022-08-07T03:13:02;0.98;;;0.77;;
27408;SDS011;20413;50.782;7.152;2022-08-07T03:15:29;0.90;;;0.80;;
27408;SDS011;20413;50.782;7.152;2022-08-07T03:17:55;1.10;;;1.00;;
27408;SDS011;20413;50.782;7.152;2022-08-07T03:20:22;0.88;;;0.77;;
27408;SDS011;20413;50.782;7.152;2022-08-07T03:22:49;2.20;;;0.88;;
27408;SDS011;20413;50.782;7.152;2022-08-07T03:25:15;0.68;;;0.68;;
27408;SDS011;20413;50.782;7.152;2022-08-07T03:27:42;1.52;;;0.75;;
27408;SDS011;20413;50.782;7.152;2022-08-07T03:30:08;1.23;;;0.73;;
27408;SDS011;20413;50.782;7.152;2022-08-07T03:32:37;0.73;;;0.65;;
27408;SDS011;20413;50.782;7.152;2022-08-07T03:35:04;0.98;;;0.95;;
27408;SDS011;20413;50.782;7.152;2022-08-07T03:39:58;0.60;;;0.60;;
27408;SDS011;20413;50.782;7.152;2022-08-07T03:42:24;0.98;;;0.70;;
27408;SDS011;20413;50.782;7.152;2022-08-07T03:44:50;1.02;;;0.82;;
27408;SDS011;20413;50.782;7.152;2022-08-07T03:47:16;0.70;;;0.70;;
27408;SDS011;20413;50.782;7.152;2022-08-07T03:49:43;1.13;;;0.80;;
27408;SDS011;20413;50.782;7.152;2022-08-07T03:52:09;1.08;;;0.98;;
27408;SDS011;20413;50.782;7.152;2022-08-07T03:54:36;2.67;;;0.82;;
27408;SDS011;20413;50.782;7.152;2022-08-07T03:57:03;2.85;;;0.90;;
27408;SDS011;20413;50.782;7.152;2022-08-07T03:59:30;0.70;;;0.70;;
27408;SDS011;20413;50.782;7.152;2022-08-07T04:01:56;1.80;;;0.80;;
27408;SDS011;20413;50.782;7.152;2022-08-07T04:04:23;1.10;;;0.63;;
27408;SDS011;20413;50.782;7.152;2022-08-07T04:06:49;2.13;;;1.02;;
27408;SDS011;20413;50.782;7.152;2022-08-07T04:09:15;1.23;;;0.90;;
27408;SDS011;20413;50.782;7.152;2022-08-07T04:11:42;2.05;;;1.00;;
27408;SDS011;20413;50.782;7.152;2022-08-07T04:14:09;1.08;;;0.75;;
27408;SDS011;20413;50.782;7.152;2022-08-07T04:16:35;1.45;;;0.77;;
27408;SDS011;20413;50.782;7.152;2022-08-07T04:19:02;1.67;;;1.00;;
27408;SDS011;20413;50.782;7.152;2022-08-07T04:21:28;1.65;;;0.70;;
27408;SDS011;20413;50.782;7.152;2022-08-07T04:23:54;0.85;;;0.85;;
27408;SDS011;20413;50.782;7.152;2022-08-07T04:26:20;0.70;;;0.70;;
27408;SDS011;20413;50.782;7.152;2022-08-07T04:28:46;1.00;;;0.90;;
27408;SDS011;20413;50.782;7.152;2022-08-07T04:31:12;0.88;;;0.82;;
27408;SDS011;20413;50.782;7.152;2022-08-07T04:33:39;0.80;;;0.80;;
27408;SDS011;20413;50.782;7.152;2022-08-07T04:36:05;1.10;;;1.00;;
27408;SDS011;20413;50.782;7.152;2022-08-07T04:38:35;0.77;;;0.77;;
27408;SDS011;20413;50.782;7.152;2022-08-07T04:41:01;1.42;;;1.08;;
27408;SDS011;20413;50.782;7.152;2022-08-07T04:43:32;2.30;;;0.95;;
27408;SDS011;20413;50.782;7.152;2022-08-07T04:46:17;2.78;;;1.10;;
27408;SDS011;20413;50.782;7.152;2022-08-07T04:48:49;1.08;;;0.88;;
27408;SDS011;20413;50.782;7.152;2022-08-07T04:53:50;0.98;;;0.70;;
27408;SDS011;20413;50.782;7.152;2022-08-07T04:56:19;1.08;;;0.70;;
27408;SDS011;20413;50.782;7.152;2022-08-07T05:01:13;1.98;;;1.45;;
27408;SDS011;20413;50.782;7.152;2022-08-07T05:03:45;2.67;;;0.90;;
27408;SDS011;20413;50.782;7.152;2022-08-07T05:06:13;0.75;;;0.75;;
27408;SDS011;20413;50.782;7.152;2022-08-07T05:11:18;2.83;;;1.02;;
27408;SDS011;20413;50.782;7.152;2022-08-07T05:13:57;1.23;;;0.88;;
27408;SDS011;20413;50.782;7.152;2022-08-07T05:16:24;0.70;;;0.70;;
27408;SDS011;20413;50.782;7.152;2022-08-07T05:18:55;1.75;;;0.75;;
27408;SDS011;20413;50.782;7.152;2022-08-07T05:21:22;1.58;;;0.80;;
27408;SDS011;20413;50.782;7.152;2022-08-07T05:26:17;1.00;;;0.75;;
27408;SDS011;20413;50.782;7.152;2022-08-07T05:28:44;1.08;;;0.70;;
27408;SDS011;20413;50.782;7.152;2022-08-07T05:31:11;1.10;;;1.00;;
27408;SDS011;20413;50.782;7.152;2022-08-07T05:33:38;1.05;;;0.88;;
27408;SDS011;20413;50.782;7.152;2022-08-07T05:36:06;2.80;;;0.90;;
27408;SDS011;20413;50.782;7.152;2022-08-07T05:38:32;1.50;;;1.00;;
27408;SDS011;20413;50.782;7.152;2022-08-07T05:40:58;0.80;;;0.80;;
27408;SDS011;20413;50.782;7.152;2022-08-07T05:43:24;1.42;;;0.88;;
27408;SDS011;20413;50.782;7.152;2022-08-07T05:45:50;2.00;;;0.98;;
27408;SDS011;20413;50.782;7.152;2022-08-07T05:48:17;0.80;;;0.80;;
27408;SDS011;20413;50.782;7.152;2022-08-07T05:50:44;1.10;;;1.00;;
27408;SDS011;20413;50.782;7.152;2022-08-07T05:53:10;1.13;;;1.05;;
27408;SDS011;20413;50.782;7.152;2022-08-07T05:55:36;1.10;;;0.90;;
27408;SDS011;20413;50.782;7.152;2022-08-07T05:58:02;2.08;;;0.70;;
27408;SDS011;20413;50.782;7.152;2022-08-07T06:00:30;3.28;;;1.10;;
27408;SDS011;20413;50.782;7.152;2022-08-07T06:02:58;1.10;;;1.08;;
27408;SDS011;20413;50.782;7.152;2022-08-07T06:05:24;5.30;;;1.15;;
27408;SDS011;20413;50.782;7.152;2022-08-07T06:07:52;2.00;;;1.35;;
27408;SDS011;20413;50.782;7.152;2022-08-07T06:10:18;1.80;;;1.30;;
27408;SDS011;20413;50.782;7.152;2022-08-07T06:12:44;1.33;;;1.20;;
27408;SDS011;20413;50.782;7.152;2022-08-07T06:15:13;2.42;;;1.20;;
27408;SDS011;20413;50.782;7.152;2022-08-07T06:17:39;2.33;;;1.40;;
27408;SDS011;20413;50.782;7.152;2022-08-07T06:20:06;3.83;;;1.30;;
27408;SDS011;20413;50.782;7.152;2022-08-07T06:22:38;3.17;;;1.30;;
27408;SDS011;20413;50.782;7.152;2022-08-07T06:25:05;1.58;;;1.35;;
27408;SDS011;20413;50.782;7.152;2022-08-07T06:27:34;1.80;;;1.63;;
27408;SDS011;20413;50.782;7.152;2022-08-07T06:30:01;4.90;;;1.58;;
27408;SDS011;20413;50.782;7.152;2022-08-07T06:32:27;1.30;;;1.20;;
27408;SDS011;20413;50.782;7.152;2022-08-07T06:34:53;1.30;;;1.20;;
27408;SDS011;20413;50.782;7.152;2022-08-07T06:37:19;1.30;;;1.20;;
27408;SDS011;20413;50.782;7.152;2022-08-07T06:39:45;1.70;;;1.23;;
27408;SDS011;20413;50.782;7.152;2022-08-07T06:42:13;1.67;;;1.25;;
27408;SDS011;20413;50.782;7.152;2022-08-07T06:44:41;2.30;;;1.00;;
27408;SDS011;20413;50.782;7.152;2022-08-07T06:47:08;4.32;;;1.58;;
27408;SDS011;20413;50.782;7.152;2022-08-07T06:49:34;1.50;;;0.98;;
27408;SDS011;20413;50.782;7.152;2022-08-07T06:52:00;5.72;;;1.20;;
27408;SDS011;20413;50.782;7.152;2022-08-07T06:54:27;1.55;;;1.10;;
27408;SDS011;20413;50.782;7.152;2022-08-07T06:56:54;2.03;;;1.45;;
27408;SDS011;20413;50.782;7.152;2022-08-07T06:59:31;1.70;;;1.10;;
27408;SDS011;20413;50.782;7.152;2022-08-07T07:01:57;0.77;;;0.77;;
27408;SDS011;20413;50.782;7.152;2022-08-07T07:04:24;1.48;;;0.80;;
27408;SDS011;20413;50.782;7.152;2022-08-07T07:06:51;0.90;;;0.50;;
27408;SDS011;20413;50.782;7.152;2022-08-07T07:09:21;0.85;;;0.50;;
27408;SDS011;20413;50.782;7.152;2022-08-07T07:14:35;0.50;;;0.50;;
27408;SDS011;20413;50.782;7.152;2022-08-07T07:17:07;2.63;;;0.90;;
27408;SDS011;20413;50.782;7.152;2022-08-07T07:19:42;0.50;;;0.47;;
27408;SDS011;20413;50.782;7.152;2022-08-07T07:22:12;0.43;;;0.43;;
27408;SDS011;20413;50.782;7.152;2022-08-07T07:24:40;0.45;;;0.45;;
27408;SDS011;20413;50.782;7.152;2022-08-07T07:27:07;1.40;;;0.55;;
27408;SDS011;20413;50.782;7.152;2022-08-07T07:29:35;0.47;;;0.47;;
27408;SDS011;20413;50.782;7.152;2022-08-07T07:32:04;0.45;;;0.45;;
27408;SDS011;20413;50.782;7.152;2022-08-07T07:34:33;0.75;;;0.35;;
27408;SDS011;20413;50.782;7.152;2022-08-07T07:37:02;0.60;;;0.40;;
27408;SDS011;20413;50.782;7.152;2022-08-07T07:39:30;0.30;;;0.20;;
27408;SDS011;20413;50.782;7.152;2022-08-07T07:41:57;0.20;;;0.20;;
27408;SDS011;20413;50.782;7.152;2022-08-07T07:44:25;2.45;;;0.40;;
27408;SDS011;20413;50.782;7.152;2022-08-07T07:46:53;0.20;;;0.20;;
27408;SDS011;20413;50.782;7.152;2022-08-07T07:49:22;0.85;;;0.40;;
27408;SDS011;20413;50.782;7.152;2022-08-07T07:51:50;0.50;;;0.30;;
27408;SDS011;20413;50.782;7.152;2022-08-07T07:54:19;0.38;;;0.20;;
27408;SDS011;20413;50.782;7.152;2022-08-07T07:56:46;0.93;;;0.40;;
27408;SDS011;20413;50.782;7.152;2022-08-07T07:59:13;0.30;;;0.30;;
27408;SDS011;20413;50.782;7.152;2022-08-07T08:01:41;0.77;;;0.30;;
27408;SDS011;20413;50.782;7.152;2022-08-07T08:04:10;0.43;;;0.20;;
27408;SDS011;20413;50.782;7.152;2022-08-07T08:06:38;2.67;;;0.30;;
27408;SDS011;20413;50.782;7.152;2022-08-07T08:11:31;0.20;;;0.20;;
27408;SDS011;20413;50.782;7.152;2022-08-07T08:13:57;0.13;;;0.13;;
27408;SDS011;20413;50.782;7.152;2022-08-07T08:16:25;2.10;;;0.20;;
27408;SDS011;20413;50.782;7.152;2022-08-07T08:18:56;0.38;;;0.20;;
27408;SDS011;20413;50.782;7.152;2022-08-07T08:21:23;0.52;;;0.25;;
27408;SDS011;20413;50.782;7.152;2022-08-07T08:24:08;0.40;;;0.28;;
27408;SDS011;20413;50.782;7.152;2022-08-07T08:26:53;0.80;;;0.17;;
27408;SDS011;20413;50.782;7.152;2022-08-07T08:29:30;2.30;;;0.40;;
27408;SDS011;20413;50.782;7.152;2022-08-07T08:32:01;0.70;;;0.20;;
27408;SDS011;20413;50.782;7.152;2022-08-07T08:34:28;0.68;;;0.20;;
27408;SDS011;20413;50.782;7.152;2022-08-07T08:36:56;0.28;;;0.20;;
27408;SDS011;20413;50.782;7.152;2022-08-07T08:39:24;0.57;;;0.30;;
27408;SDS011;20413;50.782;7.152;2022-08-07T08:41:58;0.75;;;0.30;;
27408;SDS011;20413;50.782;7.152;2022-08-07T08:44:36;0.52;;;0.17;;
27408;SDS011;20413;50.782;7.152;2022-08-07T08:50:07;0.40;;;0.10;;
27408;SDS011;20413;50.782;7.152;2022-08-07T09:00:53;0.55;;;0.30;;
27408;SDS011;20413;50.782;7.152;2022-08-07T09:06:05;2.00;;;0.30;;
27408;SDS011;20413;50.782;7.152;2022-08-07T09:08:40;0.40;;;0.30;;
27408;SDS011;20413;50.782;7.152;2022-08-07T09:11:16;0.15;;;0.10;;
27408;SDS011;20413;50.782;7.152;2022-08-07T09:25:09;1.65;;;0.20;;
27408;SDS011;20413;50.782;7.152;2022-08-07T09:27:41;0.20;;;0.20;;
27408;SDS011;20413;50.782;7.152;2022-08-07T09:30:25;1.88;;;0.20;;
27408;SDS011;20413;50.782;7.152;2022-08-07T09:35:55;0.30;;;0.20;;
27408;SDS011;20413;50.782;7.152;2022-08-07T09:38:30;0.30;;;0.05;;
27408;SDS011;20413;50.782;7.152;2022-08-07T09:41:22;0.50;;;0.10;;
27408;SDS011;20413;50.782;7.152;2022-08-07T09:44:06;3.15;;;0.17;;
27408;SDS011;20413;50.782;7.152;2022-08-07T09:55:17;0.10;;;0.10;;
27408;SDS011;20413;50.782;7.152;2022-08-07T10:01:20;0.73;;;0.10;;
27408;SDS011;20413;50.782;7.152;2022-08-07T10:04:23;0.10;;;0.10;;
27408;SDS011;20413;50.782;7.152;2022-08-07T10:07:26;1.33;;;0.20;;
27408;SDS011;20413;50.782;7.152;2022-08-07T10:15:37;0.38;;;0.20;;
27408;SDS011;20413;50.782;7.152;2022-08-07T10:18:51;0.35;;;0.25;;
27408;SDS011;20413;50.782;7.152;2022-08-07T10:24:03;0.10;;;0.10;;
27408;SDS011;20413;50.782;7.152;2022-08-07T10:27:10;1.23;;;0.38;;
27408;SDS011;20413;50.782;7.152;2022-08-07T10:29:58;0.10;;;0.10;;
27408;SDS011;20413;50.782;7.152;2022-08-07T10:41:32;1.17;;;0.20;;
27408;SDS011;20413;50.782;7.152;2022-08-07T10:52:04;1.75;;;0.20;;
27408;SDS011;20413;50.782;7.152;2022-08-07T10:54:40;0.40;;;0.20;;
27408;SDS011;20413;50.782;7.152;2022-08-07T10:57:14;0.10;;;0.10;;
27408;SDS011;20413;50.782;7.152;2022-08-07T11:00:04;0.55;;;0.10;;
27408;SDS011;20413;50.782;7.152;2022-08-07T11:02:49;0.20;;;0.00;;
27408;SDS011;20413;50.782;7.152;2022-08-07T11:05:35;0.73;;;0.20;;
27408;SDS011;20413;50.782;7.152;2022-08-07T11:10:40;1.83;;;0.35;;
27408;SDS011;20413;50.782;7.152;2022-08-07T11:13:14;0.20;;;0.10;;
27408;SDS011;20413;50.782;7.152;2022-08-07T11:15:52;0.20;;;0.10;;
27408;SDS011;20413;50.782;7.152;2022-08-07T11:18:31;0.45;;;0.10;;
27408;SDS011;20413;50.782;7.152;2022-08-07T11:21:26;0.65;;;0.10;;
27408;SDS011;20413;50.782;7.152;2022-08-07T11:24:08;0.73;;;0.13;;
27408;SDS011;20413;50.782;7.152;2022-08-07T11:26:48;0.85;;;0.20;;
27408;SDS011;20413;50.782;7.152;2022-08-07T11:35:06;1.45;;;0.20;;
27408;SDS011;20413;50.782;7.152;2022-08-07T11:43:26;0.33;;;0.20;;
27408;SDS011;20413;50.782;7.152;2022-08-07T11:46:06;0.38;;;0.10;;
27408;SDS011;20413;50.782;7.152;2022-08-07T11:48:53;0.43;;;0.10;;
27408;SDS011;20413;50.782;7.152;2022-08-07T11:57:07;1.77;;;0.20;;
27408;SDS011;20413;50.782;7.152;2022-08-07T12:08:13;0.38;;;0.10;;
27408;SDS011;20413;50.782;7.152;2022-08-07T12:10:54;0.40;;;0.22;;
27408;SDS011;20413;50.782;7.152;2022-08-07T12:13:37;0.32;;;0.10;;
27408;SDS011;20413;50.782;7.152;2022-08-07T12:16:12;1.85;;;0.30;;
27408;SDS011;20413;50.782;7.152;2022-08-07T12:21:23;0.82;;;0.10;;
27408;SDS011;20413;50.782;7.152;2022-08-07T12:26:58;0.50;;;0.13;;
27408;SDS011;20413;50.782;7.152;2022-08-07T12:29:31;0.60;;;0.10;;
27408;SDS011;20413;50.782;7.152;2022-08-07T12:32:10;0.10;;;0.10;;
27408;SDS011;20413;50.782;7.152;2022-08-07T12:34:44;1.40;;;0.20;;
27408;SDS011;20413;50.782;7.152;2022-08-07T12:37:11;0.43;;;0.17;;
27408;SDS011;20413;50.782;7.152;2022-08-07T12:39:39;0.45;;;0.20;;
27408;SDS011;20413;50.782;7.152;2022-08-07T12:42:09;2.72;;;0.17;;
27408;SDS011;20413;50.782;7.152;2022-08-07T12:44:37;0.17;;;0.17;;
27408;SDS011;20413;50.782;7.152;2022-08-07T12:47:23;0.40;;;0.20;;
27408;SDS011;20413;50.782;7.152;2022-08-07T12:52:52;0.25;;;0.10;;
27408;SDS011;20413;50.782;7.152;2022-08-07T12:55:42;0.95;;;0.30;;
27408;SDS011;20413;50.782;7.152;2022-08-07T12:58:14;0.45;;;0.10;;
27408;SDS011;20413;50.782;7.152;2022-08-07T13:03:29;0.32;;;0.17;;
27408;SDS011;20413;50.782;7.152;2022-08-07T13:11:36;0.30;;;0.13;;
27408;SDS011;20413;50.782;7.152;2022-08-07T13:16:58;0.60;;;0.22;;
27408;SDS011;20413;50.782;7.152;2022-08-07T13:19:41;0.30;;;0.30;;
27408;SDS011;20413;50.782;7.152;2022-08-07T13:22:31;0.85;;;0.30;;
27408;SDS011;20413;50.782;7.152;2022-08-07T13:30:27;0.50;;;0.30;;
27408;SDS011;20413;50.782;7.152;2022-08-07T13:35:51;1.65;;;0.30;;
27408;SDS011;20413;50.782;7.152;2022-08-07T13:38:25;0.32;;;0.10;;
27408;SDS011;20413;50.782;7.152;2022-08-07T13:43:34;0.77;;;0.10;;
27408;SDS011;20413;50.782;7.152;2022-08-07T13:46:07;0.45;;;0.20;;
27408;SDS011;20413;50.782;7.152;2022-08-07T13:53:29;0.25;;;0.13;;
27408;SDS011;20413;50.782;7.152;2022-08-07T13:55:57;1.05;;;0.30;;
27408;SDS011;20413;50.782;7.152;2022-08-07T13:58:24;0.20;;;0.00;;
27408;SDS011;20413;50.782;7.152;2022-08-07T14:01:13;0.75;;;0.17;;
27408;SDS011;20413;50.782;7.152;2022-08-07T14:03:40;0.90;;;0.10;;
27408;SDS011;20413;50.782;7.152;2022-08-07T14:08:47;0.10;;;0.10;;
27408;SDS011;20413;50.782;7.152;2022-08-07T14:11:15;0.98;;;0.10;;
27408;SDS011;20413;50.782;7.152;2022-08-07T14:13:46;1.05;;;0.20;;
27408;SDS011;20413;50.782;7.152;2022-08-07T14:16:18;0.40;;;0.10;;
27408;SDS011;20413;50.782;7.152;2022-08-07T14:18:48;0.28;;;0.10;;
27408;SDS011;20413;50.782;7.152;2022-08-07T14:21:26;0.22;;;0.10;;
27408;SDS011;20413;50.782;7.152;2022-08-07T14:27:07;1.13;;;0.10;;
27408;SDS011;20413;50.782;7.152;2022-08-07T14:29:36;0.52;;;0.10;;
27408;SDS011;20413;50.782;7.152;2022-08-07T14:32:07;0.25;;;0.10;;
27408;SDS011;20413;50.782;7.152;2022-08-07T14:34:37;0.30;;;0.17;;
27408;SDS011;20413;50.782;7.152;2022-08-07T14:37:09;0.10;;;0.10;;
27408;SDS011;20413;50.782;7.152;2022-08-07T14:39:37;0.55;;;0.10;;
27408;SDS011;20413;50.782;7.152;2022-08-07T14:42:06;0.40;;;0.30;;
27408;SDS011;20413;50.782;7.152;2022-08-07T14:44:36;1.17;;;0.30;;
27408;SDS011;20413;50.782;7.152;2022-08-07T14:47:04;1.65;;;0.75;;
27408;SDS011;20413;50.782;7.152;2022-08-07T14:49:32;0.10;;;0.10;;
27408;SDS011;20413;50.782;7.152;2022-08-07T14:51:59;0.30;;;0.20;;
27408;SDS011;20413;50.782;7.152;2022-08-07T14:54:30;2.67;;;0.30;;
27408;SDS011;20413;50.782;7.152;2022-08-07T14:56:59;0.22;;;0.10;;
27408;SDS011;20413;50.782;7.152;2022-08-07T14:59:27;0.17;;;0.10;;
27408;SDS011;20413;50.782;7.152;2022-08-07T15:01:56;0.30;;;0.20;;
27408;SDS011;20413;50.782;7.152;2022-08-07T15:04:31;0.73;;;0.20;;
27408;SDS011;20413;50.782;7.152;2022-08-07T15:07:04;1.23;;;0.20;;
27408;SDS011;20413;50.782;7.152;2022-08-07T15:09:33;0.82;;;0.17;;
27408;SDS011;20413;50.782;7.152;2022-08-07T15:12:06;0.80;;;0.10;;
27408;SDS011;20413;50.782;7.152;2022-08-07T15:14:34;0.77;;;0.20;;
27408;SDS011;20413;50.782;7.152;2022-08-07T15:17:03;0.38;;;0.15;;
27408;SDS011;20413;50.782;7.152;2022-08-07T15:19:37;0.80;;;0.13;;
27408;SDS011;20413;50.782;7.152;2022-08-07T15:22:11;0.38;;;0.10;;
27408;SDS011;20413;50.782;7.152;2022-08-07T15:24:38;0.50;;;0.20;;
27408;SDS011;20413;50.782;7.152;2022-08-07T15:27:10;0.22;;;0.20;;
27408;SDS011;20413;50.782;7.152;2022-08-07T15:29:42;0.32;;;0.20;;
27408;SDS011;20413;50.782;7.152;2022-08-07T15:32:10;0.70;;;0.10;;
27408;SDS011;20413;50.782;7.152;2022-08-07T15:34:36;0.20;;;0.20;;
27408;SDS011;20413;50.782;7.152;2022-08-07T15:37:15;2.40;;;0.20;;
27408;SDS011;20413;50.782;7.152;2022-08-07T15:39:45;1.17;;;0.28;;
27408;SDS011;20413;50.782;7.152;2022-08-07T15:45:07;0.10;;;0.10;;
27408;SDS011;20413;50.782;7.152;2022-08-07T15:47:36;1.40;;;0.22;;
27408;SDS011;20413;50.782;7.152;2022-08-07T15:50:07;0.30;;;0.10;;
27408;SDS011;20413;50.782;7.152;2022-08-07T15:52:36;1.30;;;0.20;;
27408;SDS011;20413;50.782;7.152;2022-08-07T15:55:06;0.40;;;0.25;;
27408;SDS011;20413;50.782;7.152;2022-08-07T15:57:34;0.77;;;0.10;;
27408;SDS011;20413;50.782;7.152;2022-08-07T16:00:00;1.60;;;0.57;;
27408;SDS011;20413;50.782;7.152;2022-08-07T16:02:29;0.52;;;0.10;;
27408;SDS011;20413;50.782;7.152;2022-08-07T16:04:59;0.80;;;0.22;;
27408;SDS011;20413;50.782;7.152;2022-08-07T16:07:29;0.17;;;0.10;;
27408;SDS011;20413;50.782;7.152;2022-08-07T16:09:57;0.50;;;0.30;;
27408;SDS011;20413;50.782;7.152;2022-08-07T16:12:44;3.00;;;0.65;;
27408;SDS011;20413;50.782;7.152;2022-08-07T16:29:05;0.10;;;0.10;;
27408;SDS011;20413;50.782;7.152;2022-08-07T16:32:06;0.32;;;0.10;;
27408;SDS011;20413;50.782;7.152;2022-08-07T16:34:52;1.65;;;0.20;;
27408;SDS011;20413;50.782;7.152;2022-08-07T16:43:09;0.20;;;0.13;;
27408;SDS011;20413;50.782;7.152;2022-08-07T16:51:16;0.95;;;0.20;;
27408;SDS011;20413;50.782;7.152;2022-08-07T16:56:25;0.30;;;0.10;;
27408;SDS011;20413;50.782;7.152;2022-08-07T16:59:21;5.97;;;0.30;;
27408;SDS011;20413;50.782;7.152;2022-08-07T17:07:54;0.15;;;0.10;;
27408;SDS011;20413;50.782;7.152;2022-08-07T17:21:00;1.02;;;0.30;;
27408;SDS011;20413;50.782;7.152;2022-08-07T17:23:36;0.98;;;0.10;;
27408;SDS011;20413;50.782;7.152;2022-08-07T17:34:11;0.80;;;0.25;;
27408;SDS011;20413;50.782;7.152;2022-08-07T17:36:44;5.93;;;0.30;;
27408;SDS011;20413;50.782;7.152;2022-08-07T17:39:23;0.35;;;0.20;;
27408;SDS011;20413;50.782;7.152;2022-08-07T17:42:21;0.50;;;0.30;;
27408;SDS011;20413;50.782;7.152;2022-08-07T17:44:57;1.10;;;0.40;;
27408;SDS011;20413;50.782;7.152;2022-08-07T17:47:27;0.20;;;0.10;;
27408;SDS011;20413;50.782;7.152;2022-08-07T17:50:00;0.28;;;0.20;;
27408;SDS011;20413;50.782;7.152;2022-08-07T17:55:37;1.38;;;0.20;;
27408;SDS011;20413;50.782;7.152;2022-08-07T17:58:16;0.40;;;0.25;;
27408;SDS011;20413;50.782;7.152;2022-08-07T18:01:09;0.25;;;0.25;;
27408;SDS011;20413;50.782;7.152;2022-08-07T18:03:42;0.20;;;0.20;;
27408;SDS011;20413;50.782;7.152;2022-08-07T18:06:34;0.55;;;0.30;;
27408;SDS011;20413;50.782;7.152;2022-08-07T18:09:05;0.22;;;0.20;;
27408;SDS011;20413;50.782;7.152;2022-08-07T18:11:46;3.83;;;0.30;;
27408;SDS011;20413;50.782;7.152;2022-08-07T18:18:02;0.30;;;0.30;;
27408;SDS011;20413;50.782;7.152;2022-08-07T18:20:38;0.75;;;0.38;;
27408;SDS011;20413;50.782;7.152;2022-08-07T18:23:09;3.22;;;0.95;;
27408;SDS011;20413;50.782;7.152;2022-08-07T18:25:37;0.20;;;0.20;;
27408;SDS011;20413;50.782;7.152;2022-08-07T18:28:21;2.65;;;0.50;;
27408;SDS011;20413;50.782;7.152;2022-08-07T18:30:58;0.82;;;0.35;;
27408;SDS011;20413;50.782;7.152;2022-08-07T18:39:26;2.35;;;0.25;;
27408;SDS011;20413;50.782;7.152;2022-08-07T18:42:09;1.15;;;0.20;;
27408;SDS011;20413;50.782;7.152;2022-08-07T18:47:26;0.30;;;0.30;;
27408;SDS011;20413;50.782;7.152;2022-08-07T19:00:32;0.57;;;0.57;;
27408;SDS011;20413;50.782;7.152;2022-08-07T19:05:40;2.38;;;0.40;;
27408;SDS011;20413;50.782;7.152;2022-08-07T19:08:16;0.63;;;0.30;;